sensor_id;sensor_type;location;lat;lon;timestamp;pressure;altitude;pressure_sealevel;temperature;humidity
12803;BME280;6465;42.700;23.278;2023-12-14T00:00:56;93979.09;;;7.35;84.16
12803;BME280;6465;42.700;23.278;2023-12-14T00:03:23;93982.63;;;7.34;84.75
12803;BME280;6465;42.700;23.278;2023-12-14T00:05:49;93989.84;;;7.29;85.34
12803;BME280;6465;42.700;23.278;2023-12-14T00:08:18;93994.31;;;7.27;85.54
12803;BME280;6465;42.700;23.278;2023-12-14T00:10:45;93971.91;;;7.25;84.60
12803;BME280;6465;42.700;23.278;2023-12-14T00:13:11;93974.00;;;7.18;84.69
12803;BME280;6465;42.700;23.278;2023-12-14T00:15:38;94007.41;;;7.10;85.74
12803;BME280;6465;42.700;23.278;2023-12-14T00:18:06;93997.00;;;7.10;85.72
12803;BME280;6465;42.700;23.278;2023-12-14T00:20:33;93989.28;;;6.93;86.79
12803;BME280;6465;42.700;23.278;2023-12-14T00:23:00;93998.00;;;6.92;86.73
12803;BME280;6465;42.700;23.278;2023-12-14T00:25:28;93998.31;;;6.86;87.35
12803;BME280;6465;42.700;23.278;2023-12-14T00:27:55;94004.72;;;6.80;87.49
12803;BME280;6465;42.700;23.278;2023-12-14T00:30:22;93986.56;;;6.79;86.98
12803;BME280;6465;42.700;23.278;2023-12-14T00:32:49;94002.84;;;6.66;88.21
12803;BME280;6465;42.700;23.278;2023-12-14T00:35:16;93996.69;;;6.67;87.97
12803;BME280;6465;42.700;23.278;2023-12-14T00:37:43;94003.75;;;6.65;88.78
12803;BME280;6465;42.700;23.278;2023-12-14T00:40:11;93997.25;;;6.57;88.66
12803;BME280;6465;42.700;23.278;2023-12-14T00:42:39;94001.94;;;6.50;89.52
12803;BME280;6465;42.700;23.278;2023-12-14T00:45:07;93998.03;;;6.42;89.96
12803;BME280;6465;42.700;23.278;2023-12-14T00:47:34;94003.19;;;6.43;90.89
12803;BME280;6465;42.700;23.278;2023-12-14T00:50:01;93994.72;;;6.40;91.52
12803;BME280;6465;42.700;23.278;2023-12-14T00:52:28;93997.53;;;6.35;92.49
12803;BME280;6465;42.700;23.278;2023-12-14T00:54:56;93994.72;;;6.40;91.90
12803;BME280;6465;42.700;23.278;2023-12-14T00:57:23;93995.84;;;6.34;92.07
12803;BME280;6465;42.700;23.278;2023-12-14T00:59:51;94005.91;;;6.40;91.67
12803;BME280;6465;42.700;23.278;2023-12-14T01:02:18;94013.91;;;6.37;91.13
12803;BME280;6465;42.700;23.278;2023-12-14T01:04:45;93997.19;;;6.41;90.38
12803;BME280;6465;42.700;23.278;2023-12-14T01:07:12;93998.28;;;6.37;91.73
12803;BME280;6465;42.700;23.278;2023-12-14T01:09:39;94005.00;;;6.41;90.33
12803;BME280;6465;42.700;23.278;2023-12-14T01:12:06;94002.66;;;6.36;90.25
12803;BME280;6465;42.700;23.278;2023-12-14T01:14:33;93986.28;;;6.34;90.44
12803;BME280;6465;42.700;23.278;2023-12-14T01:17:01;94002.72;;;6.35;90.31
12803;BME280;6465;42.700;23.278;2023-12-14T01:19:28;93999.66;;;6.27;91.68
12803;BME280;6465;42.700;23.278;2023-12-14T01:21:55;93985.31;;;6.20;91.88
12803;BME280;6465;42.700;23.278;2023-12-14T01:24:22;93985.63;;;6.14;92.52
12803;BME280;6465;42.700;23.278;2023-12-14T01:26:49;93989.00;;;6.16;92.35
12803;BME280;6465;42.700;23.278;2023-12-14T01:29:16;93985.88;;;6.09;91.98
12803;BME280;6465;42.700;23.278;2023-12-14T01:31:43;93985.19;;;6.06;91.67
12803;BME280;6465;42.700;23.278;2023-12-14T01:34:12;93992.03;;;6.07;91.03
12803;BME280;6465;42.700;23.278;2023-12-14T01:36:41;93981.38;;;6.13;89.85
12803;BME280;6465;42.700;23.278;2023-12-14T01:39:08;93987.88;;;6.04;91.00
12803;BME280;6465;42.700;23.278;2023-12-14T01:41:35;93978.00;;;6.11;91.59
12803;BME280;6465;42.700;23.278;2023-12-14T01:44:02;93981.66;;;6.07;91.75
12803;BME280;6465;42.700;23.278;2023-12-14T01:46:28;93979.28;;;6.02;91.55
12803;BME280;6465;42.700;23.278;2023-12-14T01:48:55;93991.13;;;6.08;91.62
12803;BME280;6465;42.700;23.278;2023-12-14T01:51:24;93984.94;;;5.93;91.65
12803;BME280;6465;42.700;23.278;2023-12-14T01:53:51;93983.97;;;5.95;92.01
12803;BME280;6465;42.700;23.278;2023-12-14T01:56:18;93966.69;;;5.94;92.67
12803;BME280;6465;42.700;23.278;2023-12-14T01:58:44;93981.34;;;5.78;93.88
12803;BME280;6465;42.700;23.278;2023-12-14T02:01:20;93970.44;;;5.89;93.53
12803;BME280;6465;42.700;23.278;2023-12-14T02:03:50;93973.31;;;5.83;92.11
12803;BME280;6465;42.700;23.278;2023-12-14T02:06:18;93973.84;;;5.72;92.48
12803;BME280;6465;42.700;23.278;2023-12-14T02:08:46;93963.38;;;5.74;92.59
12803;BME280;6465;42.700;23.278;2023-12-14T02:11:13;93959.72;;;5.78;93.22
12803;BME280;6465;42.700;23.278;2023-12-14T02:13:40;93967.06;;;5.70;94.71
12803;BME280;6465;42.700;23.278;2023-12-14T02:16:07;93967.72;;;5.73;94.34
12803;BME280;6465;42.700;23.278;2023-12-14T02:18:35;93956.66;;;5.70;94.54
12803;BME280;6465;42.700;23.278;2023-12-14T02:21:02;93962.09;;;5.65;95.45
12803;BME280;6465;42.700;23.278;2023-12-14T02:23:30;93955.22;;;5.64;96.13
12803;BME280;6465;42.700;23.278;2023-12-14T02:25:57;93952.63;;;5.64;95.30
12803;BME280;6465;42.700;23.278;2023-12-14T02:28:24;93947.88;;;5.72;95.36
12803;BME280;6465;42.700;23.278;2023-12-14T02:30:51;93955.50;;;5.75;95.21
12803;BME280;6465;42.700;23.278;2023-12-14T02:33:18;93946.09;;;5.73;95.09
12803;BME280;6465;42.700;23.278;2023-12-14T02:35:45;93953.81;;;5.74;93.83
12803;BME280;6465;42.700;23.278;2023-12-14T02:38:12;93946.94;;;5.73;92.36
12803;BME280;6465;42.700;23.278;2023-12-14T02:40:40;93956.72;;;5.68;92.85
12803;BME280;6465;42.700;23.278;2023-12-14T02:43:07;93941.22;;;5.67;94.62
12803;BME280;6465;42.700;23.278;2023-12-14T02:45:34;93965.22;;;5.72;95.76
12803;BME280;6465;42.700;23.278;2023-12-14T02:48:01;93965.66;;;5.80;95.04
12803;BME280;6465;42.700;23.278;2023-12-14T02:50:28;93965.97;;;5.74;97.02
12803;BME280;6465;42.700;23.278;2023-12-14T02:52:55;93961.31;;;5.80;96.75
12803;BME280;6465;42.700;23.278;2023-12-14T02:55:22;93974.28;;;5.80;95.91
12803;BME280;6465;42.700;23.278;2023-12-14T02:57:50;93969.94;;;5.81;97.06
12803;BME280;6465;42.700;23.278;2023-12-14T03:00:17;93954.22;;;5.84;96.44
12803;BME280;6465;42.700;23.278;2023-12-14T03:02:44;93959.72;;;5.78;96.83
12803;BME280;6465;42.700;23.278;2023-12-14T03:05:11;93960.88;;;5.72;97.49
12803;BME280;6465;42.700;23.278;2023-12-14T03:07:38;93975.00;;;5.84;96.93
12803;BME280;6465;42.700;23.278;2023-12-14T03:10:07;93957.44;;;5.89;96.22
12803;BME280;6465;42.700;23.278;2023-12-14T03:12:34;93956.88;;;5.82;96.83
12803;BME280;6465;42.700;23.278;2023-12-14T03:15:03;93954.78;;;5.90;96.75
12803;BME280;6465;42.700;23.278;2023-12-14T03:17:30;93938.28;;;5.91;96.40
12803;BME280;6465;42.700;23.278;2023-12-14T03:19:57;93946.50;;;5.82;96.56
12803;BME280;6465;42.700;23.278;2023-12-14T03:22:24;93958.56;;;5.83;96.34
12803;BME280;6465;42.700;23.278;2023-12-14T03:24:51;93929.09;;;5.84;95.81
12803;BME280;6465;42.700;23.278;2023-12-14T03:27:18;93945.72;;;5.80;96.77
12803;BME280;6465;42.700;23.278;2023-12-14T03:29:45;93933.56;;;5.81;96.64
12803;BME280;6465;42.700;23.278;2023-12-14T03:32:13;93947.25;;;5.67;98.00
12803;BME280;6465;42.700;23.278;2023-12-14T03:34:40;93908.16;;;5.70;97.99
12803;BME280;6465;42.700;23.278;2023-12-14T03:37:07;93922.97;;;5.68;98.87
12803;BME280;6465;42.700;23.278;2023-12-14T03:39:34;93918.69;;;5.84;98.71
12803;BME280;6465;42.700;23.278;2023-12-14T03:42:01;93901.44;;;5.83;97.75
12803;BME280;6465;42.700;23.278;2023-12-14T03:44:28;93905.84;;;5.81;98.04
12803;BME280;6465;42.700;23.278;2023-12-14T03:46:55;93915.31;;;5.82;97.72
12803;BME280;6465;42.700;23.278;2023-12-14T03:49:24;93923.75;;;5.87;97.63
12803;BME280;6465;42.700;23.278;2023-12-14T03:51:51;93906.34;;;5.89;97.58
12803;BME280;6465;42.700;23.278;2023-12-14T03:54:18;93902.06;;;5.88;97.23
12803;BME280;6465;42.700;23.278;2023-12-14T03:56:45;93902.81;;;5.90;97.40
12803;BME280;6465;42.700;23.278;2023-12-14T03:59:12;93892.13;;;5.96;96.95
12803;BME280;6465;42.700;23.278;2023-12-14T04:01:39;93897.97;;;6.00;97.17
12803;BME280;6465;42.700;23.278;2023-12-14T04:04:06;93892.03;;;5.98;96.54
12803;BME280;6465;42.700;23.278;2023-12-14T04:06:34;93901.44;;;5.83;97.80
12803;BME280;6465;42.700;23.278;2023-12-14T04:09:01;93911.38;;;5.92;97.79
12803;BME280;6465;42.700;23.278;2023-12-14T04:11:28;93921.59;;;5.95;97.12
12803;BME280;6465;42.700;23.278;2023-12-14T04:13:55;93908.03;;;5.90;97.42
12803;BME280;6465;42.700;23.278;2023-12-14T04:16:23;93915.03;;;5.88;97.02
12803;BME280;6465;42.700;23.278;2023-12-14T04:18:49;93926.13;;;5.92;97.32
12803;BME280;6465;42.700;23.278;2023-12-14T04:21:16;93916.09;;;6.02;96.83
12803;BME280;6465;42.700;23.278;2023-12-14T04:23:45;93939.53;;;6.00;96.74
12803;BME280;6465;42.700;23.278;2023-12-14T04:26:12;93901.81;;;5.93;96.94
12803;BME280;6465;42.700;23.278;2023-12-14T04:28:39;93942.56;;;5.92;98.37
12803;BME280;6465;42.700;23.278;2023-12-14T04:31:09;93892.19;;;5.95;98.35
12803;BME280;6465;42.700;23.278;2023-12-14T04:33:36;93928.56;;;5.95;98.42
12803;BME280;6465;42.700;23.278;2023-12-14T04:36:04;93910.97;;;6.00;99.33
12803;BME280;6465;42.700;23.278;2023-12-14T04:38:31;93943.75;;;6.03;98.70
12803;BME280;6465;42.700;23.278;2023-12-14T04:41:00;93906.28;;;6.07;98.19
12803;BME280;6465;42.700;23.278;2023-12-14T04:43:27;93920.31;;;6.04;99.36
12803;BME280;6465;42.700;23.278;2023-12-14T04:45:55;93915.38;;;6.15;98.77
12803;BME280;6465;42.700;23.278;2023-12-14T04:48:22;93911.78;;;6.18;97.71
12803;BME280;6465;42.700;23.278;2023-12-14T04:50:49;93928.06;;;6.21;98.19
12803;BME280;6465;42.700;23.278;2023-12-14T04:53:16;93936.44;;;6.26;97.71
12803;BME280;6465;42.700;23.278;2023-12-14T04:56:01;93924.13;;;6.30;97.01
12803;BME280;6465;42.700;23.278;2023-12-14T04:58:28;93936.75;;;6.20;97.61
12803;BME280;6465;42.700;23.278;2023-12-14T05:00:55;93925.63;;;6.18;98.49
12803;BME280;6465;42.700;23.278;2023-12-14T05:03:22;93918.06;;;6.14;98.79
12803;BME280;6465;42.700;23.278;2023-12-14T05:05:49;93921.03;;;6.23;99.20
12803;BME280;6465;42.700;23.278;2023-12-14T05:08:16;93929.16;;;6.17;98.77
12803;BME280;6465;42.700;23.278;2023-12-14T05:10:43;93905.50;;;6.22;98.87
12803;BME280;6465;42.700;23.278;2023-12-14T05:13:12;93921.41;;;6.33;98.02
12803;BME280;6465;42.700;23.278;2023-12-14T05:15:39;93915.44;;;6.31;96.91
12803;BME280;6465;42.700;23.278;2023-12-14T05:18:07;93922.31;;;6.32;96.19
12803;BME280;6465;42.700;23.278;2023-12-14T05:20:34;93911.47;;;6.24;95.93
12803;BME280;6465;42.700;23.278;2023-12-14T05:23:01;93930.56;;;6.23;97.70
12803;BME280;6465;42.700;23.278;2023-12-14T05:25:28;93928.75;;;6.25;97.26
12803;BME280;6465;42.700;23.278;2023-12-14T05:27:55;93938.97;;;6.28;97.17
12803;BME280;6465;42.700;23.278;2023-12-14T05:30:23;93933.69;;;6.29;97.21
12803;BME280;6465;42.700;23.278;2023-12-14T05:32:50;93930.09;;;6.32;96.49
12803;BME280;6465;42.700;23.278;2023-12-14T05:35:17;93935.81;;;6.39;95.90
12803;BME280;6465;42.700;23.278;2023-12-14T05:37:44;93947.84;;;6.24;97.03
12803;BME280;6465;42.700;23.278;2023-12-14T05:40:11;93956.53;;;6.40;95.89
12803;BME280;6465;42.700;23.278;2023-12-14T05:42:38;93952.00;;;6.44;96.28
12803;BME280;6465;42.700;23.278;2023-12-14T05:45:06;93946.88;;;6.42;96.77
12803;BME280;6465;42.700;23.278;2023-12-14T05:47:35;93943.44;;;6.42;97.05
12803;BME280;6465;42.700;23.278;2023-12-14T05:50:03;93942.28;;;6.47;96.53
12803;BME280;6465;42.700;23.278;2023-12-14T05:52:30;93949.50;;;6.42;96.04
12803;BME280;6465;42.700;23.278;2023-12-14T05:54:57;93968.91;;;6.52;95.24
12803;BME280;6465;42.700;23.278;2023-12-14T05:57:24;93953.38;;;6.51;95.90
12803;BME280;6465;42.700;23.278;2023-12-14T05:59:51;93942.72;;;6.55;95.42
12803;BME280;6465;42.700;23.278;2023-12-14T06:02:18;93957.47;;;6.39;95.61
12803;BME280;6465;42.700;23.278;2023-12-14T06:04:47;93963.19;;;6.46;96.12
12803;BME280;6465;42.700;23.278;2023-12-14T06:07:14;93962.34;;;6.45;95.75
12803;BME280;6465;42.700;23.278;2023-12-14T06:09:42;93959.75;;;6.45;95.36
12803;BME280;6465;42.700;23.278;2023-12-14T06:12:09;93967.38;;;6.48;95.37
12803;BME280;6465;42.700;23.278;2023-12-14T06:14:36;93973.22;;;6.36;95.80
12803;BME280;6465;42.700;23.278;2023-12-14T06:17:03;93960.66;;;6.44;96.58
12803;BME280;6465;42.700;23.278;2023-12-14T06:19:30;93953.00;;;6.41;96.41
12803;BME280;6465;42.700;23.278;2023-12-14T06:21:59;93971.31;;;6.40;96.86
12803;BME280;6465;42.700;23.278;2023-12-14T06:24:26;93976.78;;;6.51;96.80
12803;BME280;6465;42.700;23.278;2023-12-14T06:26:53;93963.53;;;6.55;96.69
12803;BME280;6465;42.700;23.278;2023-12-14T06:29:19;93975.94;;;6.50;97.15
12803;BME280;6465;42.700;23.278;2023-12-14T06:31:46;93990.56;;;6.68;96.64
12803;BME280;6465;42.700;23.278;2023-12-14T06:34:13;93978.31;;;6.70;96.20
12803;BME280;6465;42.700;23.278;2023-12-14T06:36:42;93978.59;;;6.82;94.88
12803;BME280;6465;42.700;23.278;2023-12-14T06:39:10;93982.88;;;6.83;95.14
12803;BME280;6465;42.700;23.278;2023-12-14T06:41:37;93985.91;;;6.91;95.51
12803;BME280;6465;42.700;23.278;2023-12-14T06:44:05;93994.88;;;7.01;95.33
12803;BME280;6465;42.700;23.278;2023-12-14T06:46:34;93995.56;;;7.04;94.37
12803;BME280;6465;42.700;23.278;2023-12-14T06:49:01;94003.13;;;7.09;93.32
12803;BME280;6465;42.700;23.278;2023-12-14T06:51:28;94004.03;;;7.08;93.30
12803;BME280;6465;42.700;23.278;2023-12-14T06:53:55;94012.69;;;7.08;93.52
12803;BME280;6465;42.700;23.278;2023-12-14T06:56:24;94001.44;;;7.08;93.25
12803;BME280;6465;42.700;23.278;2023-12-14T06:58:50;93990.69;;;7.14;93.00
12803;BME280;6465;42.700;23.278;2023-12-14T07:01:17;93987.44;;;7.10;93.30
12803;BME280;6465;42.700;23.278;2023-12-14T07:03:45;93989.28;;;7.24;93.32
12803;BME280;6465;42.700;23.278;2023-12-14T07:06:12;93997.66;;;7.29;92.99
12803;BME280;6465;42.700;23.278;2023-12-14T07:08:40;94012.03;;;7.36;92.47
12803;BME280;6465;42.700;23.278;2023-12-14T07:11:07;94010.97;;;7.40;92.82
12803;BME280;6465;42.700;23.278;2023-12-14T07:13:36;94014.97;;;7.46;92.98
12803;BME280;6465;42.700;23.278;2023-12-14T07:16:05;94012.94;;;7.51;92.41
12803;BME280;6465;42.700;23.278;2023-12-14T07:18:33;94022.72;;;7.47;92.22
12803;BME280;6465;42.700;23.278;2023-12-14T07:21:00;94020.69;;;7.37;92.71
12803;BME280;6465;42.700;23.278;2023-12-14T07:23:27;94037.81;;;7.56;92.86
12803;BME280;6465;42.700;23.278;2023-12-14T07:25:54;94031.00;;;7.70;92.09
12803;BME280;6465;42.700;23.278;2023-12-14T07:28:21;94036.78;;;7.75;90.71
12803;BME280;6465;42.700;23.278;2023-12-14T07:30:50;94024.72;;;7.88;90.15
12803;BME280;6465;42.700;23.278;2023-12-14T07:33:17;94015.91;;;7.90;89.97
12803;BME280;6465;42.700;23.278;2023-12-14T07:35:44;94022.72;;;7.93;90.67
12803;BME280;6465;42.700;23.278;2023-12-14T07:38:13;94012.94;;;7.96;90.24
12803;BME280;6465;42.700;23.278;2023-12-14T07:40:40;94025.19;;;8.10;89.49
12803;BME280;6465;42.700;23.278;2023-12-14T07:43:08;94044.00;;;8.15;89.60
12803;BME280;6465;42.700;23.278;2023-12-14T07:45:35;94042.84;;;8.21;89.59
12803;BME280;6465;42.700;23.278;2023-12-14T07:48:03;94046.94;;;8.25;88.88
12803;BME280;6465;42.700;23.278;2023-12-14T07:50:30;94040.88;;;8.24;89.49
12803;BME280;6465;42.700;23.278;2023-12-14T07:52:57;94040.88;;;8.24;89.62
12803;BME280;6465;42.700;23.278;2023-12-14T07:55:24;94051.56;;;8.35;88.41
12803;BME280;6465;42.700;23.278;2023-12-14T07:57:51;94040.03;;;8.40;88.03
12803;BME280;6465;42.700;23.278;2023-12-14T08:00:18;94039.66;;;8.46;88.46
12803;BME280;6465;42.700;23.278;2023-12-14T08:02:45;94058.88;;;8.59;85.99
12803;BME280;6465;42.700;23.278;2023-12-14T08:05:13;94035.22;;;8.48;87.04
12803;BME280;6465;42.700;23.278;2023-12-14T08:07:41;94057.59;;;8.66;86.89
12803;BME280;6465;42.700;23.278;2023-12-14T08:10:08;94053.31;;;8.79;85.92
12803;BME280;6465;42.700;23.278;2023-12-14T08:12:35;94041.03;;;8.81;84.59
12803;BME280;6465;42.700;23.278;2023-12-14T08:15:03;94045.50;;;8.93;85.55
12803;BME280;6465;42.700;23.278;2023-12-14T08:17:30;94058.72;;;9.04;85.23
12803;BME280;6465;42.700;23.278;2023-12-14T08:19:57;94054.63;;;9.14;84.57
12803;BME280;6465;42.700;23.278;2023-12-14T08:22:25;94049.66;;;9.24;83.80
12803;BME280;6465;42.700;23.278;2023-12-14T08:24:52;94055.34;;;9.31;84.32
12803;BME280;6465;42.700;23.278;2023-12-14T08:27:19;94048.81;;;9.38;83.99
12803;BME280;6465;42.700;23.278;2023-12-14T08:29:46;94045.66;;;9.47;83.45
12803;BME280;6465;42.700;23.278;2023-12-14T08:32:13;94048.22;;;9.61;83.72
12803;BME280;6465;42.700;23.278;2023-12-14T08:34:40;94057.06;;;9.73;82.74
12803;BME280;6465;42.700;23.278;2023-12-14T08:37:07;94061.59;;;9.83;80.76
12803;BME280;6465;42.700;23.278;2023-12-14T08:39:36;94060.28;;;9.90;80.35
12803;BME280;6465;42.700;23.278;2023-12-14T08:42:03;94046.06;;;9.94;78.66
12803;BME280;6465;42.700;23.278;2023-12-14T08:44:30;94060.94;;;9.94;78.63
12803;BME280;6465;42.700;23.278;2023-12-14T08:46:57;94054.16;;;10.04;79.41
12803;BME280;6465;42.700;23.278;2023-12-14T08:49:24;94064.88;;;10.14;80.00
12803;BME280;6465;42.700;23.278;2023-12-14T08:51:51;94059.81;;;10.25;79.56
12803;BME280;6465;42.700;23.278;2023-12-14T08:54:18;94048.31;;;10.27;78.59
12803;BME280;6465;42.700;23.278;2023-12-14T08:56:46;94058.19;;;10.37;78.02
12803;BME280;6465;42.700;23.278;2023-12-14T08:59:13;94061.84;;;10.47;76.67
12803;BME280;6465;42.700;23.278;2023-12-14T09:01:40;94063.22;;;10.52;75.58
12803;BME280;6465;42.700;23.278;2023-12-14T09:04:07;94061.25;;;10.56;76.39
12803;BME280;6465;42.700;23.278;2023-12-14T09:06:34;94066.16;;;10.60;76.06
12803;BME280;6465;42.700;23.278;2023-12-14T09:09:01;94062.19;;;10.67;75.80
12803;BME280;6465;42.700;23.278;2023-12-14T09:11:28;94063.69;;;10.84;74.59
12803;BME280;6465;42.700;23.278;2023-12-14T09:13:57;94043.97;;;10.91;74.89
12803;BME280;6465;42.700;23.278;2023-12-14T09:16:24;94044.19;;;11.01;74.74
12803;BME280;6465;42.700;23.278;2023-12-14T09:18:51;94043.03;;;11.05;73.97
12803;BME280;6465;42.700;23.278;2023-12-14T09:21:18;94046.81;;;11.13;74.14
12803;BME280;6465;42.700;23.278;2023-12-14T09:23:45;94040.84;;;11.24;74.38
12803;BME280;6465;42.700;23.278;2023-12-14T09:26:12;94045.66;;;11.30;73.26
12803;BME280;6465;42.700;23.278;2023-12-14T09:28:39;94046.66;;;11.40;73.13
12803;BME280;6465;42.700;23.278;2023-12-14T09:31:08;94056.63;;;11.48;73.41
12803;BME280;6465;42.700;23.278;2023-12-14T09:33:34;94054.81;;;11.61;73.56
12803;BME280;6465;42.700;23.278;2023-12-14T09:36:02;94070.09;;;11.67;72.60
12803;BME280;6465;42.700;23.278;2023-12-14T09:38:29;94068.84;;;11.73;72.07
12803;BME280;6465;42.700;23.278;2023-12-14T09:40:56;94070.09;;;11.80;71.67
12803;BME280;6465;42.700;23.278;2023-12-14T09:43:23;94069.06;;;11.82;70.14
12803;BME280;6465;42.700;23.278;2023-12-14T09:45:51;94055.41;;;11.90;70.57
12803;BME280;6465;42.700;23.278;2023-12-14T09:48:20;94068.81;;;11.98;70.01
12803;BME280;6465;42.700;23.278;2023-12-14T09:50:49;94073.88;;;11.88;69.12
12803;BME280;6465;42.700;23.278;2023-12-14T09:53:17;94077.06;;;12.05;70.13
12803;BME280;6465;42.700;23.278;2023-12-14T09:55:45;94071.50;;;12.09;69.87
12803;BME280;6465;42.700;23.278;2023-12-14T09:58:12;94075.69;;;12.12;68.80
12803;BME280;6465;42.700;23.278;2023-12-14T10:00:40;94084.25;;;12.14;69.14
12803;BME280;6465;42.700;23.278;2023-12-14T10:03:20;94068.31;;;12.17;68.78
12803;BME280;6465;42.700;23.278;2023-12-14T10:05:47;94077.53;;;12.22;68.32
12803;BME280;6465;42.700;23.278;2023-12-14T10:08:14;94071.81;;;12.28;68.48
12803;BME280;6465;42.700;23.278;2023-12-14T10:10:56;94055.09;;;12.18;67.50
12803;BME280;6465;42.700;23.278;2023-12-14T10:13:36;94077.81;;;12.30;68.42
12803;BME280;6465;42.700;23.278;2023-12-14T10:16:04;94076.16;;;12.41;69.08
12803;BME280;6465;42.700;23.278;2023-12-14T10:18:31;94079.53;;;12.43;69.68
12803;BME280;6465;42.700;23.278;2023-12-14T10:21:00;94079.03;;;12.38;70.46
12803;BME280;6465;42.700;23.278;2023-12-14T10:23:27;94071.59;;;12.32;71.40
12803;BME280;6465;42.700;23.278;2023-12-14T10:25:57;94061.94;;;12.32;71.45
12803;BME280;6465;42.700;23.278;2023-12-14T10:28:24;94066.13;;;12.35;71.88
12803;BME280;6465;42.700;23.278;2023-12-14T10:30:52;94058.53;;;12.43;72.09
12803;BME280;6465;42.700;23.278;2023-12-14T10:33:19;94063.78;;;12.43;71.89
12803;BME280;6465;42.700;23.278;2023-12-14T10:35:46;94070.53;;;12.34;72.67
12803;BME280;6465;42.700;23.278;2023-12-14T10:38:15;94072.06;;;12.25;73.82
12803;BME280;6465;42.700;23.278;2023-12-14T10:40:44;94090.34;;;12.14;74.95
12803;BME280;6465;42.700;23.278;2023-12-14T10:43:15;94085.50;;;11.97;76.72
12803;BME280;6465;42.700;23.278;2023-12-14T10:45:43;94076.50;;;12.12;76.70
12803;BME280;6465;42.700;23.278;2023-12-14T10:48:13;94086.53;;;11.95;78.32
12803;BME280;6465;42.700;23.278;2023-12-14T10:50:42;94102.38;;;11.93;79.55
12803;BME280;6465;42.700;23.278;2023-12-14T10:53:09;94106.25;;;12.00;79.04
12803;BME280;6465;42.700;23.278;2023-12-14T10:55:38;94115.81;;;12.01;78.86
12803;BME280;6465;42.700;23.278;2023-12-14T10:58:08;94119.84;;;11.81;79.56
12803;BME280;6465;42.700;23.278;2023-12-14T11:00:37;94121.94;;;11.89;78.89
12803;BME280;6465;42.700;23.278;2023-12-14T11:03:05;94124.13;;;11.95;78.17
12803;BME280;6465;42.700;23.278;2023-12-14T11:05:32;94149.44;;;11.83;77.12
12803;BME280;6465;42.700;23.278;2023-12-14T11:08:01;94142.50;;;11.70;76.90
12803;BME280;6465;42.700;23.278;2023-12-14T11:10:37;94145.03;;;11.46;77.30
12803;BME280;6465;42.700;23.278;2023-12-14T11:13:07;94163.78;;;11.40;77.27
12803;BME280;6465;42.700;23.278;2023-12-14T11:15:38;94156.56;;;11.43;76.68
12803;BME280;6465;42.700;23.278;2023-12-14T11:18:25;94110.38;;;10.78;76.39
12803;BME280;6465;42.700;23.278;2023-12-14T11:20:55;94167.97;;;11.17;75.19
12803;BME280;6465;42.700;23.278;2023-12-14T11:23:31;94169.53;;;11.07;75.29
12803;BME280;6465;42.700;23.278;2023-12-14T11:26:00;94175.34;;;10.85;76.19
12803;BME280;6465;42.700;23.278;2023-12-14T11:28:30;94186.56;;;10.87;75.85
12803;BME280;6465;42.700;23.278;2023-12-14T11:31:00;94190.31;;;10.70;76.57
12803;BME280;6465;42.700;23.278;2023-12-14T11:33:27;94189.47;;;10.70;76.25
12803;BME280;6465;42.700;23.278;2023-12-14T11:35:54;94194.09;;;10.52;75.69
12803;BME280;6465;42.700;23.278;2023-12-14T11:38:22;94218.97;;;10.45;75.82
12803;BME280;6465;42.700;23.278;2023-12-14T11:40:50;94213.78;;;10.31;75.78
12803;BME280;6465;42.700;23.278;2023-12-14T11:43:17;94228.16;;;10.38;75.55
12803;BME280;6465;42.700;23.278;2023-12-14T11:45:46;94219.75;;;10.33;76.12
12803;BME280;6465;42.700;23.278;2023-12-14T11:48:14;94214.75;;;10.30;76.03
12803;BME280;6465;42.700;23.278;2023-12-14T11:50:42;94240.25;;;10.26;76.17
12803;BME280;6465;42.700;23.278;2023-12-14T11:53:10;94231.00;;;10.21;76.41
12803;BME280;6465;42.700;23.278;2023-12-14T11:55:38;94226.91;;;10.17;76.17
12803;BME280;6465;42.700;23.278;2023-12-14T11:58:06;94241.09;;;10.27;75.91
12803;BME280;6465;42.700;23.278;2023-12-14T12:00:34;94233.81;;;10.18;75.64
12803;BME280;6465;42.700;23.278;2023-12-14T12:03:10;94225.94;;;10.18;75.61
12803;BME280;6465;42.700;23.278;2023-12-14T12:05:40;94240.22;;;10.12;75.83
12803;BME280;6465;42.700;23.278;2023-12-14T12:08:09;94230.59;;;10.13;75.58
12803;BME280;6465;42.700;23.278;2023-12-14T12:10:40;94240.91;;;10.02;76.08
12803;BME280;6465;42.700;23.278;2023-12-14T12:13:09;94247.22;;;10.12;75.82
12803;BME280;6465;42.700;23.278;2023-12-14T12:15:38;94241.28;;;10.10;75.77
12803;BME280;6465;42.700;23.278;2023-12-14T12:18:06;94264.81;;;10.10;75.77
12803;BME280;6465;42.700;23.278;2023-12-14T12:20:34;94233.78;;;10.04;75.98
12803;BME280;6465;42.700;23.278;2023-12-14T12:23:02;94269.00;;;10.12;75.42
12803;BME280;6465;42.700;23.278;2023-12-14T12:25:30;94262.00;;;10.13;75.61
12803;BME280;6465;42.700;23.278;2023-12-14T12:27:57;94247.63;;;10.06;75.91
12803;BME280;6465;42.700;23.278;2023-12-14T12:30:24;94275.28;;;10.10;75.54
12803;BME280;6465;42.700;23.278;2023-12-14T12:32:51;94255.75;;;10.01;75.82
12803;BME280;6465;42.700;23.278;2023-12-14T12:35:18;94278.38;;;10.02;76.18
12803;BME280;6465;42.700;23.278;2023-12-14T12:37:46;94246.13;;;10.02;76.24
12803;BME280;6465;42.700;23.278;2023-12-14T12:40:20;94273.97;;;10.03;76.08
12803;BME280;6465;42.700;23.278;2023-12-14T12:42:48;94258.38;;;10.15;75.85
12803;BME280;6465;42.700;23.278;2023-12-14T12:45:16;94235.50;;;9.76;77.09
12803;BME280;6465;42.700;23.278;2023-12-14T12:47:44;94270.59;;;10.01;76.74
12803;BME280;6465;42.700;23.278;2023-12-14T12:50:11;94257.06;;;9.94;76.90
12803;BME280;6465;42.700;23.278;2023-12-14T12:52:38;94261.91;;;9.86;77.42
12803;BME280;6465;42.700;23.278;2023-12-14T12:55:06;94273.97;;;10.03;76.73
12803;BME280;6465;42.700;23.278;2023-12-14T12:57:34;94251.38;;;10.02;76.75
12803;BME280;6465;42.700;23.278;2023-12-14T13:00:02;94262.66;;;9.74;78.09
12803;BME280;6465;42.700;23.278;2023-12-14T13:02:30;94274.91;;;9.87;77.39
12803;BME280;6465;42.700;23.278;2023-12-14T13:04:56;94198.50;;;9.54;77.18
12803;BME280;6465;42.700;23.278;2023-12-14T13:07:24;94271.06;;;9.79;77.22
12803;BME280;6465;42.700;23.278;2023-12-14T13:09:51;94265.34;;;9.72;77.17